Decoded Metar for EPBY (BYDGOSZCZ in POLAND) (IATA:N/A) | Meteo·Mobile Aviation Weather
aviador You're here:

EPBY Decoded Metar

BYDGOSZCZ in POLAND
Report Time2019-03-23 01:00:00
UTC Time2019-03-23 01:13:59
Flight Rules vfr VFR
Wind180° at 04 kt
W.Decomp.*RWY 26: 0.3 kt HW 4 kt LCW
W.Rank180° ranks 19
Current wind is below 180° avg. (4.8)
Visibility8000 m
Phenomena:N/A
Clouds:N/A
Expected CloudBase > 400 ft AGL from Temp-Dew spread
CeilingNone
Temp02°C (ISA -13)
Dew Point01°C (93% RH)
AAT-1.3°C
QNH1029 hPa
Density Alt-1,745 ft
Elevation233 ft
Report Wrong Elevation
Raw Report
METAR EPBY 230100Z 18004KT 8000 NSC 02/01 Q1029 =

Extra information for EPBY:More info

Metar Taf Metar & Taf Last 4 Metars F.Rules Stats Wind Profile Meteogram Temp Stats Airport Information Weather charts Add Link Nearby VenuesMetar ALERT Operation Metar Decoded Social comments